Time;durP1;ratioP1;P1;durP2;ratioP2;P2;SDS_P1;SDS_P2;PMS_P1;PMS_P2;Temp;Humidity;BMP_temperature;BMP_pressure;BME280_temperature;BME280_humidity;BME280_pressure;Samples;Min_cycle;Max_cycle;Signal;HPM_P1;HPM_P2
2021/03/03 00:01:14;;;;;;;61.47;22.63;;;;;;;1.19;90.65;102336.39;123448;1105;64866;-76
2021/03/03 00:03:41;;;;;;;44.63;17.60;;;;;;;1.20;90.88;102338.94;123884;1105;65911;-77
2021/03/03 00:06:07;;;;;;;43.77;17.53;;;;;;;1.19;90.59;102337.26;123397;1105;64899;-77
2021/03/03 00:08:33;;;;;;;39.33;15.25;;;;;;;1.16;90.34;102332.16;123430;1105;64898;-77
2021/03/03 00:10:59;;;;;;;45.25;17.60;;;;;;;1.12;90.44;102330.61;123440;1105;65051;-77
2021/03/03 00:13:25;;;;;;;60.75;20.43;;;;;;;1.13;90.34;102336.70;123429;1105;64857;-76
2021/03/03 00:15:51;;;;;;;54.13;22.57;;;;;;;1.11;90.42;102328.93;123348;1105;64952;-75
2021/03/03 00:18:18;;;;;;;57.10;20.03;;;;;;;1.11;90.88;102331.55;123448;1105;65358;-76
2021/03/03 00:20:45;;;;;;;59.55;20.00;;;;;;;1.13;90.83;102334.94;123424;1105;65054;-77
2021/03/03 00:23:11;;;;;;;49.60;18.45;;;;;;;1.12;90.66;102330.61;123743;1105;64891;-76
2021/03/03 00:25:37;;;;;;;44.63;17.03;;;;;;;1.12;90.63;102327.99;123432;1105;65023;-78
2021/03/03 00:28:04;;;;;;;51.73;18.80;;;;;;;1.14;91.20;102328.77;123388;1105;64902;-77
2021/03/03 00:30:30;;;;;;;43.67;17.53;;;;;;;1.14;90.98;102320.93;123398;1105;64911;-77
2021/03/03 00:32:56;;;;;;;57.63;20.73;;;;;;;1.12;90.73;102325.38;123447;1105;64985;-77
2021/03/03 00:35:22;;;;;;;51.33;20.23;;;;;;;1.11;90.89;102326.31;123429;1105;65336;-79
2021/03/03 00:37:49;;;;;;;40.83;16.93;;;;;;;1.06;90.21;102319.61;123399;1105;65304;-76
2021/03/03 00:40:15;;;;;;;41.23;17.17;;;;;;;0.99;89.97;102319.05;123425;1105;66261;-77
2021/03/03 00:42:41;;;;;;;34.57;14.23;;;;;;;0.91;90.93;102318.56;123393;1105;64941;-76
2021/03/03 00:45:08;;;;;;;40.03;15.97;;;;;;;0.88;91.09;102314.34;123442;1104;65680;-76
2021/03/03 00:47:34;;;;;;;41.50;15.43;;;;;;;0.85;90.22;102311.02;123529;1104;64894;-75
2021/03/03 00:50:03;;;;;;;62.83;20.80;;;;;;;0.85;91.01;102311.88;123390;1105;65035;-76
2021/03/03 00:52:29;;;;;;;52.85;19.75;;;;;;;0.85;90.82;102308.41;123438;1105;65711;-76
2021/03/03 00:54:55;;;;;;;53.52;19.32;;;;;;;0.83;90.34;102303.27;123380;1105;64978;-75
2021/03/03 00:57:22;;;;;;;54.73;19.20;;;;;;;0.84;91.06;102301.50;123465;1105;64905;-76
2021/03/03 00:59:48;;;;;;;51.73;19.23;;;;;;;0.84;91.20;102289.27;123430;1105;65067;-76
2021/03/03 01:02:14;;;;;;;44.10;15.27;;;;;;;0.85;90.71;102301.44;123440;1105;64927;-77
2021/03/03 01:04:40;;;;;;;45.70;16.77;;;;;;;0.81;90.31;102295.50;123464;1106;64924;-75
2021/03/03 01:07:06;;;;;;;45.07;16.70;;;;;;;0.77;90.49;102288.72;123387;1105;65621;-75
2021/03/03 01:09:32;;;;;;;59.93;20.83;;;;;;;0.75;90.19;102294.94;123406;1105;64909;-76
2021/03/03 01:11:58;;;;;;;50.87;18.03;;;;;;;0.73;90.54;102286.33;123464;1105;65706;-75
2021/03/03 01:14:25;;;;;;;54.30;18.45;;;;;;;0.74;91.50;102288.00;123379;1105;65039;-75
2021/03/03 01:16:54;;;;;;;45.43;19.30;;;;;;;0.75;91.03;102280.11;123451;1105;64908;-75
2021/03/03 01:19:21;;;;;;;46.30;16.85;;;;;;;0.74;90.37;102278.40;123819;1105;64859;-74
2021/03/03 01:21:48;;;;;;;38.87;15.80;;;;;;;0.72;90.71;102275.05;123403;1105;65046;-76
2021/03/03 01:24:14;;;;;;;38.90;14.75;;;;;;;0.71;91.17;102269.88;123441;1105;65132;-76
2021/03/03 01:26:41;;;;;;;29.75;13.75;;;;;;;0.67;90.75;102271.78;123461;1104;64902;-77
2021/03/03 01:29:07;;;;;;;47.63;18.83;;;;;;;0.65;90.53;102273.62;123769;1105;64882;-77
2021/03/03 01:31:34;;;;;;;41.90;18.25;;;;;;;0.63;91.07;102270.23;123446;1106;65712;-75
2021/03/03 01:34:01;;;;;;;50.97;18.13;;;;;;;0.64;90.83;102266.72;123478;1105;64902;-76
2021/03/03 01:36:27;;;;;;;39.27;16.80;;;;;;;0.67;91.34;102269.17;123481;1105;65046;-75
2021/03/03 01:38:54;;;;;;;43.38;15.98;;;;;;;0.68;91.60;102263.05;123443;1104;65298;-77
2021/03/03 01:41:20;;;;;;;35.87;14.80;;;;;;;0.69;91.55;102269.11;123417;1105;65045;-79
2021/03/03 01:43:47;;;;;;;33.30;12.87;;;;;;;0.69;91.35;102269.11;123449;1105;64987;-78
2021/03/03 01:46:14;;;;;;;36.20;13.97;;;;;;;0.63;90.66;102257.17;123669;1105;65019;-77
2021/03/03 01:48:41;;;;;;;51.53;17.98;;;;;;;0.61;90.98;102257.23;123457;1105;65713;-78
2021/03/03 01:51:08;;;;;;;39.23;18.00;;;;;;;0.58;90.79;102253.94;123482;1105;64892;-77
2021/03/03 01:53:34;;;;;;;48.03;16.00;;;;;;;0.53;90.24;102254.16;123479;1105;64950;-78
2021/03/03 01:56:01;;;;;;;39.87;15.20;;;;;;;0.48;90.31;102245.67;123445;1106;64898;-79
2021/03/03 01:58:27;;;;;;;34.43;12.47;;;;;;;0.43;90.12;102241.61;123448;1105;64953;-78
2021/03/03 02:01:14;;;;;;;41.65;14.00;;;;;;;0.35;89.99;102240.17;123377;1105;65058;-76
2021/03/03 02:03:40;;;;;;;28.50;11.80;;;;;;;0.25;90.81;102228.46;123388;1105;64876;-77
2021/03/03 02:06:28;;;;;;;42.43;17.73;;;;;;;0.29;91.14;102240.45;123373;1105;66005;-79
2021/03/03 02:09:27;;;;;;;42.57;15.77;;;;;;;0.28;90.52;102233.55;123382;1105;65674;-75
2021/03/03 02:12:02;;;;;;;42.95;14.35;;;;;;;0.26;90.56;102235.39;123781;1104;65653;-75
2021/03/03 02:14:30;;;;;;;40.27;16.13;;;;;;;0.25;90.49;102227.63;123288;1105;65071;-76
2021/03/03 02:16:57;;;;;;;33.00;13.50;;;;;;;0.23;90.41;102232.06;123615;1105;66318;-76
2021/03/03 02:19:34;;;;;;;26.07;11.60;;;;;;;0.22;91.50;102218.17;123429;1105;64924;-76
2021/03/03 02:22:39;;;;;;;23.50;11.10;;;;;;;0.20;91.59;102220.84;123394;1105;64857;-76
2021/03/03 02:25:32;;;;;;;26.63;10.47;;;;;;;0.19;90.91;102223.52;123457;1105;64918;-77
2021/03/03 02:28:01;;;;;;;32.73;13.60;;;;;;;0.20;91.62;102220.01;123611;1105;64918;-80
2021/03/03 02:30:29;;;;;;;35.93;15.00;;;;;;;0.19;91.02;102215.69;123427;1104;64921;-77
2021/03/03 02:32:58;;;;;;;29.37;12.17;;;;;;;0.17;91.31;102213.17;123656;1105;64997;-77
2021/03/03 02:35:26;;;;;;;28.00;12.23;;;;;;;0.17;90.96;102210.56;123523;1105;65014;-78
2021/03/03 02:37:54;;;;;;;20.97;10.30;;;;;;;0.17;91.33;102204.47;123795;1105;64901;-77
2021/03/03 02:40:21;;;;;;;19.30;9.93;;;;;;;0.12;91.21;102203.84;123429;1105;64892;-76
2021/03/03 02:42:48;;;;;;;26.77;9.43;;;;;;;0.08;90.31;102204.91;123390;1105;65714;-77
2021/03/03 02:45:18;;;;;;;21.47;9.27;;;;;;;0.00;90.69;102202.66;123398;1105;65151;-76
2021/03/03 02:47:45;;;;;;;24.53;11.70;;;;;;;-0.05;90.68;102200.23;123527;1105;64918;-77
2021/03/03 02:50:13;;;;;;;27.70;11.93;;;;;;;-0.12;90.20;102193.61;123443;1105;64936;-76
2021/03/03 02:52:50;;;;;;;24.47;11.43;;;;;;;-0.17;90.49;102200.81;123360;1106;64975;-76
2021/03/03 02:55:17;;;;;;;23.70;11.17;;;;;;;-0.20;90.29;102195.71;123428;1105;64902;-77
2021/03/03 02:57:43;;;;;;;21.67;9.67;;;;;;;-0.22;90.80;102198.38;123422;1105;64920;-77
2021/03/03 03:00:20;;;;;;;21.40;10.00;;;;;;;-0.26;90.75;102194.21;123671;1105;64921;-77
2021/03/03 03:02:52;;;;;;;20.33;8.77;;;;;;;-0.29;90.06;102190.91;123368;1105;64918;-77
2021/03/03 03:05:20;;;;;;;20.53;8.67;;;;;;;-0.36;89.40;102187.73;123382;1105;64998;-76
2021/03/03 03:07:48;;;;;;;25.63;10.87;;;;;;;-0.44;89.02;102187.22;123427;1105;65203;-76
2021/03/03 03:10:20;;;;;;;29.97;12.60;;;;;;;-0.49;89.98;102195.25;123722;1106;64921;-76
2021/03/03 03:12:51;;;;;;;26.67;11.10;;;;;;;-0.54;89.34;102194.58;123378;1105;64988;-76
2021/03/03 03:15:22;;;;;;;26.40;11.47;;;;;;;-0.60;89.44;102191.39;123696;1105;64937;-77
2021/03/03 03:17:54;;;;;;;21.50;9.55;;;;;;;-0.63;89.63;102197.59;123400;1105;65705;-79
2021/03/03 03:20:22;;;;;;;21.35;10.30;;;;;;;-0.64;89.73;102201.96;123758;1105;65010;-77
2021/03/03 03:22:48;;;;;;;22.65;10.75;;;;;;;-0.64;90.21;102195.87;123416;1105;64940;-77
2021/03/03 03:25:16;;;;;;;30.73;11.70;;;;;;;-0.66;90.51;102197.70;123395;1106;64856;-77
2021/03/03 03:27:44;;;;;;;25.87;11.10;;;;;;;-0.70;89.81;102196.14;123358;1105;64895;-77
2021/03/03 03:30:14;;;;;;;24.23;10.30;;;;;;;-0.72;89.80;102193.62;123579;1105;65902;-78
2021/03/03 03:32:41;;;;;;;21.13;10.03;;;;;;;-0.76;89.72;102199.03;123481;1105;64924;-78
2021/03/03 03:35:10;;;;;;;18.15;9.55;;;;;;;-0.79;88.98;102199.14;123545;1105;64892;-78
2021/03/03 03:37:38;;;;;;;20.70;9.00;;;;;;;-0.83;89.86;102193.20;123493;1105;64950;-77
2021/03/03 03:40:05;;;;;;;25.53;10.63;;;;;;;-0.85;89.81;102203.70;123378;1105;64911;-78
2021/03/03 03:42:32;;;;;;;25.80;11.15;;;;;;;-0.86;89.15;102196.78;123486;1105;65136;-77
2021/03/03 03:45:00;;;;;;;25.20;11.37;;;;;;;-0.83;89.29;102201.02;123595;1105;64873;-78
2021/03/03 03:47:27;;;;;;;22.57;9.43;;;;;;;-0.81;90.30;102193.98;123390;1106;64909;-77
2021/03/03 03:49:53;;;;;;;22.53;10.30;;;;;;;-0.83;90.23;102191.47;123353;1104;64901;-77
2021/03/03 03:52:20;;;;;;;19.30;10.23;;;;;;;-0.85;89.23;102192.41;123368;1105;64891;-76
2021/03/03 03:54:51;;;;;;;25.40;11.47;;;;;;;-0.85;90.30;102182.86;123580;1105;66036;-77
2021/03/03 03:57:18;;;;;;;29.20;12.50;;;;;;;-0.84;91.20;102189.75;123471;1105;65364;-76
2021/03/03 03:59:44;;;;;;;26.90;11.53;;;;;;;-0.82;90.87;102185.33;123474;1105;64854;-79
2021/03/03 04:02:11;;;;;;;21.63;10.60;;;;;;;-0.77;90.25;102192.11;123389;1105;66111;-76
2021/03/03 04:04:39;;;;;;;21.87;9.57;;;;;;;-0.74;91.58;102197.20;123416;1105;65310;-77
2021/03/03 04:07:05;;;;;;;21.00;9.43;;;;;;;-0.70;91.09;102190.92;123467;1105;64905;-79
2021/03/03 04:09:32;;;;;;;17.57;9.20;;;;;;;-0.68;91.24;102194.31;123342;1105;64953;-78
2021/03/03 04:11:58;;;;;;;33.40;12.53;;;;;;;-0.63;91.10;102189.77;123389;1106;64889;-78
2021/03/03 04:14:25;;;;;;;24.02;10.85;;;;;;;-0.59;91.57;102188.73;123431;1105;64953;-77
2021/03/03 04:16:51;;;;;;;21.97;12.40;;;;;;;-0.55;91.17;102185.08;123516;1105;64924;-78
2021/03/03 04:19:18;;;;;;;24.93;12.13;;;;;;;-0.50;90.45;102188.32;123610;1105;65020;-78
2021/03/03 04:21:45;;;;;;;15.67;8.50;;;;;;;-0.46;91.65;102189.88;123539;1105;65045;-77
2021/03/03 04:24:12;;;;;;;16.80;7.30;;;;;;;-0.41;90.90;102177.48;123454;1106;64853;-78
2021/03/03 04:26:38;;;;;;;19.90;9.13;;;;;;;-0.37;92.19;102187.80;123320;1105;64912;-76
2021/03/03 04:29:04;;;;;;;18.73;8.87;;;;;;;-0.34;90.56;102187.64;123394;1105;65301;-77
2021/03/03 04:31:30;;;;;;;21.23;11.03;;;;;;;-0.31;90.97;102192.74;123433;1105;64927;-77
2021/03/03 04:33:57;;;;;;;35.03;14.80;;;;;;;-0.25;91.23;102184.66;123300;1105;65030;-78
2021/03/03 04:36:23;;;;;;;20.63;11.13;;;;;;;-0.21;91.55;102187.05;123397;1105;64901;-76
2021/03/03 04:38:49;;;;;;;18.23;9.50;;;;;;;-0.17;90.75;102179.94;123424;1104;64960;-79
2021/03/03 04:41:15;;;;;;;22.48;9.85;;;;;;;-0.15;90.58;102178.12;123417;1105;64882;-77
2021/03/03 04:43:41;;;;;;;18.50;8.13;;;;;;;-0.13;91.43;102171.03;123398;1105;64912;-77
2021/03/03 04:46:07;;;;;;;17.00;7.30;;;;;;;-0.12;90.82;102161.47;123472;1105;65031;-77
2021/03/03 04:48:33;;;;;;;34.17;10.87;;;;;;;-0.12;91.21;102164.92;123403;1105;64936;-77
2021/03/03 04:51:00;;;;;;;22.97;10.33;;;;;;;-0.11;91.20;102174.42;123412;1105;65244;-77
2021/03/03 04:53:26;;;;;;;22.73;9.93;;;;;;;-0.10;90.58;102170.08;123408;1105;65052;-78
2021/03/03 04:55:52;;;;;;;21.20;9.77;;;;;;;-0.10;91.07;102173.52;123449;1106;64921;-79
2021/03/03 04:58:18;;;;;;;23.57;9.33;;;;;;;-0.09;90.00;102172.59;123363;1105;64914;-77
2021/03/03 05:00:45;;;;;;;19.12;8.88;;;;;;;-0.09;90.93;102166.54;123449;1105;66124;-79
2021/03/03 05:03:31;;;;;;;19.20;8.90;;;;;;;-0.12;90.86;102164.92;123347;1105;64946;-79
2021/03/03 05:06:02;;;;;;;21.47;9.73;;;;;;;-0.12;90.05;102166.69;123468;1105;64914;-79
2021/03/03 05:08:28;;;;;;;18.05;8.80;;;;;;;-0.14;89.94;102158.92;123382;1105;64895;-78
2021/03/03 05:10:54;;;;;;;19.67;8.95;;;;;;;-0.13;91.06;102159.77;123403;1105;64923;-77
2021/03/03 05:13:20;;;;;;;26.43;9.67;;;;;;;-0.14;90.84;102164.14;123449;1105;66121;-78
2021/03/03 05:15:46;;;;;;;15.33;8.07;;;;;;;-0.16;89.98;102160.76;123657;1105;65378;-79
2021/03/03 05:18:13;;;;;;;23.52;11.63;;;;;;;-0.15;90.96;102157.25;123332;1105;65013;-78
2021/03/03 05:20:39;;;;;;;27.10;12.00;;;;;;;-0.15;90.58;102152.03;123541;1105;65358;-78
2021/03/03 05:23:06;;;;;;;22.33;11.50;;;;;;;-0.16;89.98;102150.33;123458;1105;64953;-79
2021/03/03 05:25:33;;;;;;;31.87;14.57;;;;;;;-0.14;91.00;102155.48;123471;1105;64847;-79
2021/03/03 05:28:00;;;;;;;27.63;13.30;;;;;;;-0.15;90.07;102151.16;123439;1104;65010;-78
2021/03/03 05:30:27;;;;;;;34.20;16.00;;;;;;;-0.15;89.83;102149.42;123375;1105;64849;-78
2021/03/03 05:32:53;;;;;;;33.73;16.33;;;;;;;-0.13;90.25;102147.56;123591;1105;64975;-79
2021/03/03 05:35:20;;;;;;;29.10;13.50;;;;;;;-0.10;90.37;102144.83;123550;1105;64905;-78
2021/03/03 05:37:47;;;;;;;29.33;14.10;;;;;;;-0.06;91.19;102143.78;123472;1105;64895;-79
2021/03/03 05:40:14;;;;;;;28.60;13.57;;;;;;;-0.01;91.61;102133.96;123503;1105;65358;-77
2021/03/03 05:42:41;;;;;;;24.00;10.93;;;;;;;0.06;91.72;102138.90;123477;1105;65445;-77
2021/03/03 05:45:07;;;;;;;23.50;9.70;;;;;;;0.09;90.95;102138.77;123433;1105;64958;-78
2021/03/03 05:47:37;;;;;;;19.17;9.03;;;;;;;0.13;91.02;102132.50;123655;1105;65680;-77
2021/03/03 05:50:06;;;;;;;22.80;12.45;;;;;;;0.18;91.65;102133.11;124405;1105;65710;-77
2021/03/03 05:52:34;;;;;;;26.43;13.77;;;;;;;0.23;91.74;102131.13;123588;1103;65712;-77
2021/03/03 05:55:04;;;;;;;26.80;12.43;;;;;;;0.28;91.47;102133.54;123377;1105;65025;-77
2021/03/03 05:57:32;;;;;;;24.20;12.10;;;;;;;0.33;91.77;102132.38;123464;1105;64931;-76
2021/03/03 06:00:00;;;;;;;22.23;10.50;;;;;;;0.39;91.24;102142.53;123432;1105;64946;-78
2021/03/03 06:02:28;;;;;;;19.30;8.50;;;;;;;0.44;90.61;102138.86;123595;1105;65251;-79
2021/03/03 06:04:55;;;;;;;15.77;7.80;;;;;;;0.46;91.05;102143.08;123473;1105;64981;-79
2021/03/03 06:07:22;;;;;;;18.07;8.07;;;;;;;0.49;91.17;102144.69;123406;1105;64979;-78
2021/03/03 06:09:48;;;;;;;17.75;9.38;;;;;;;0.54;91.20;102147.95;123357;1105;66149;-77
2021/03/03 06:12:14;;;;;;;21.80;10.07;;;;;;;0.58;90.55;102136.44;123405;1105;64978;-76
2021/03/03 06:14:40;;;;;;;20.17;9.17;;;;;;;0.64;90.59;102137.88;123358;1105;64912;-77
2021/03/03 06:17:07;;;;;;;19.77;8.63;;;;;;;0.67;90.75;102132.52;123299;1105;64943;-77
2021/03/03 06:19:34;;;;;;;14.93;8.00;;;;;;;0.70;90.03;102128.00;123460;1105;65061;-79
2021/03/03 06:22:26;;;;;;;16.02;8.08;;;;;;;0.77;90.45;102137.22;123369;1105;64901;-79
2021/03/03 06:24:57;;;;;;;18.13;8.13;;;;;;;0.87;90.22;102126.30;123489;1106;65712;-78
2021/03/03 06:27:24;;;;;;;15.27;8.00;;;;;;;0.95;91.04;102124.16;123379;1105;64952;-77
2021/03/03 06:30:20;;;;;;;23.37;10.10;;;;;;;1.07;90.80;102127.92;123389;1105;64921;-79
2021/03/03 06:32:57;;;;;;;20.70;9.80;;;;;;;1.19;90.36;102122.92;123339;1105;64988;-76
2021/03/03 06:35:43;;;;;;;16.40;8.43;;;;;;;1.28;90.04;102123.38;123674;1105;64943;-77
2021/03/03 06:38:14;;;;;;;20.40;8.97;;;;;;;1.39;90.35;102129.72;123538;1105;64927;-78
2021/03/03 06:40:50;;;;;;;20.47;8.67;;;;;;;1.49;89.95;102132.70;123411;1105;65253;-77
2021/03/03 06:43:19;;;;;;;20.23;8.83;;;;;;;1.57;88.83;102135.77;123377;1104;66080;-78
2021/03/03 06:45:45;;;;;;;17.07;8.77;;;;;;;1.62;89.10;102130.28;123368;1105;65253;-76
2021/03/03 06:48:12;;;;;;;18.73;8.83;;;;;;;1.66;89.04;102136.18;123383;1105;64918;-77
2021/03/03 06:50:40;;;;;;;18.40;9.20;;;;;;;1.73;88.99;102132.33;123395;1105;64985;-77
2021/03/03 06:53:07;;;;;;;21.20;9.87;;;;;;;1.82;88.93;102127.42;123468;1105;64965;-77
2021/03/03 06:55:44;;;;;;;24.43;11.03;;;;;;;1.93;88.99;102126.01;123401;1105;64966;-76
2021/03/03 06:58:24;;;;;;;17.17;9.50;;;;;;;2.03;88.84;102125.42;123408;1104;64982;-76
2021/03/03 07:00:51;;;;;;;17.00;8.40;;;;;;;2.16;88.37;102122.13;123358;1104;64949;-76
2021/03/03 07:03:32;;;;;;;21.17;8.33;;;;;;;2.28;88.76;102129.31;123404;1105;64907;-76
2021/03/03 07:06:01;;;;;;;17.77;8.43;;;;;;;2.39;88.04;102137.40;123593;1106;64924;-76
2021/03/03 07:08:28;;;;;;;21.13;9.00;;;;;;;2.52;87.81;102131.48;123404;1105;65231;-77
2021/03/03 07:10:55;;;;;;;23.10;8.33;;;;;;;2.68;87.62;102136.67;123385;1105;65225;-78
2021/03/03 07:13:39;;;;;;;18.67;8.67;;;;;;;2.81;87.00;102138.51;123424;1105;64924;-78
2021/03/03 07:16:09;;;;;;;16.87;8.03;;;;;;;2.95;87.29;102123.74;123290;1105;64911;-76
2021/03/03 07:18:39;;;;;;;18.00;7.87;;;;;;;3.08;87.23;102136.97;123469;1105;65022;-78
2021/03/03 07:21:08;;;;;;;17.87;8.00;;;;;;;3.18;86.04;102131.09;123364;1105;65213;-78
2021/03/03 07:23:52;;;;;;;15.10;6.90;;;;;;;3.31;86.57;102132.98;123471;1105;65206;-78
2021/03/03 07:26:18;;;;;;;11.77;6.47;;;;;;;3.45;86.40;102123.34;123481;1105;64976;-78
2021/03/03 07:28:45;;;;;;;13.70;7.73;;;;;;;3.59;85.44;102122.52;123497;1105;65001;-79
2021/03/03 07:31:13;;;;;;;17.47;7.87;;;;;;;3.70;84.90;102126.23;123570;1105;64966;-80
2021/03/03 07:33:40;;;;;;;18.33;9.17;;;;;;;3.83;84.27;102127.18;123632;1105;65035;-79
2021/03/03 07:36:07;;;;;;;18.80;8.50;;;;;;;3.99;83.60;102127.88;123458;1105;65055;-79
2021/03/03 07:38:37;;;;;;;13.77;7.77;;;;;;;4.12;84.10;102127.95;123451;1105;64972;-80
2021/03/03 07:41:06;;;;;;;17.43;9.33;;;;;;;4.25;83.72;102122.75;123688;1105;65001;-80
2021/03/03 07:43:34;;;;;;;14.77;7.23;;;;;;;4.38;82.88;102123.67;123919;1105;65721;-81
2021/03/03 07:46:09;;;;;;;19.23;8.63;;;;;;;4.51;82.35;102128.13;123687;1105;64989;-80
2021/03/03 07:48:37;;;;;;;19.10;8.53;;;;;;;4.62;82.38;102123.01;123726;1105;64898;-80
2021/03/03 07:51:06;;;;;;;17.33;8.70;;;;;;;4.75;81.75;102125.66;123526;1105;65377;-80
2021/03/03 07:53:40;;;;;;;18.00;8.10;;;;;;;4.88;81.69;102118.64;123532;1105;64894;-81
2021/03/03 07:56:08;;;;;;;18.87;9.10;;;;;;;5.02;80.60;102115.09;123880;1105;64979;-81
2021/03/03 07:58:36;;;;;;;14.57;8.03;;;;;;;5.15;80.70;102117.73;123867;1106;64841;-79
2021/03/03 08:01:21;;;;;;;21.33;8.53;;;;;;;5.30;80.89;102122.77;123505;1105;64944;-78
2021/03/03 08:03:50;;;;;;;16.83;8.53;;;;;;;5.43;79.79;102111.41;123517;1105;64860;-79
2021/03/03 08:06:39;;;;;;;14.73;8.27;;;;;;;5.57;79.12;102118.33;123576;1105;65032;-80
2021/03/03 08:09:05;;;;;;;14.60;7.97;;;;;;;5.72;79.10;102112.84;123497;1105;64929;-80
2021/03/03 08:11:38;;;;;;;17.50;8.28;;;;;;;5.86;78.58;102113.65;123405;1105;64963;-78
2021/03/03 08:14:34;;;;;;;16.37;7.70;;;;;;;6.04;77.32;102111.54;123642;1105;64986;-78
2021/03/03 08:17:06;;;;;;;18.47;8.23;;;;;;;6.24;76.93;102108.28;123686;1105;65782;-80
2021/03/03 08:19:52;;;;;;;16.60;7.03;;;;;;;6.42;76.88;102116.66;123755;1105;64918;-79
2021/03/03 08:22:19;;;;;;;16.47;7.50;;;;;;;6.61;73.63;102110.87;123527;1105;64921;-80
2021/03/03 08:24:45;;;;;;;16.43;7.03;;;;;;;6.77;74.09;102107.91;123508;1105;65010;-78
2021/03/03 08:27:30;;;;;;;14.90;7.43;;;;;;;6.94;73.31;102101.36;123540;1105;64950;-82
2021/03/03 08:30:18;;;;;;;18.07;7.65;;;;;;;7.11;70.87;102102.71;123422;1105;64933;-79
2021/03/03 08:32:44;;;;;;;13.80;7.57;;;;;;;7.27;68.87;102103.22;123449;1106;65321;-78
2021/03/03 08:35:11;;;;;;;13.30;7.40;;;;;;;7.39;67.15;102093.49;123606;1105;64978;-80
2021/03/03 08:37:38;;;;;;;14.23;7.03;;;;;;;7.51;67.77;102104.91;123844;1106;64905;-83
2021/03/03 08:40:25;;;;;;;14.70;7.83;;;;;;;7.63;67.26;102097.80;123706;1106;64979;-81
2021/03/03 08:42:52;;;;;;;13.43;6.17;;;;;;;7.74;67.51;102090.73;123465;1105;64908;-82
2021/03/03 08:45:19;;;;;;;12.82;6.83;;;;;;;7.89;67.17;102096.59;123553;1105;64883;-80
2021/03/03 08:47:48;;;;;;;20.53;7.80;;;;;;;8.01;67.66;102092.13;123698;1105;64921;-81
2021/03/03 08:50:38;;;;;;;14.85;7.45;;;;;;;8.13;67.11;102098.21;123586;1104;64914;-82
2021/03/03 08:53:17;;;;;;;11.63;5.83;;;;;;;8.25;67.03;102089.29;123573;1105;65357;-82
2021/03/03 08:55:43;;;;;;;13.13;6.80;;;;;;;8.37;66.49;102092.72;123901;1104;64894;-80
2021/03/03 08:58:37;;;;;;;12.30;6.00;;;;;;;8.51;65.55;102097.75;123632;1105;64946;-81
2021/03/03 09:01:05;;;;;;;15.67;6.77;;;;;;;8.61;62.73;102095.19;123799;1104;64921;-85
2021/03/03 09:03:32;;;;;;;13.07;6.33;;;;;;;8.73;64.12;102088.02;123515;1105;64943;-84
2021/03/03 09:05:58;;;;;;;14.70;6.67;;;;;;;8.85;63.18;102091.45;123464;1105;65685;-83
2021/03/03 09:08:25;;;;;;;15.93;7.03;;;;;;;9.00;63.55;102089.32;123460;1105;64979;-80
2021/03/03 09:10:52;;;;;;;12.97;6.80;;;;;;;9.12;61.85;102086.47;123425;1105;64924;-78
2021/03/03 09:13:29;;;;;;;11.87;5.80;;;;;;;9.27;61.67;102080.83;123474;1105;64915;-83
2021/03/03 09:16:02;;;;;;;15.27;7.87;;;;;;;9.41;60.78;102079.62;123631;1105;65077;-81
2021/03/03 09:18:29;;;;;;;13.93;6.67;;;;;;;9.52;60.05;102079.52;124109;1105;65329;-83
2021/03/03 09:21:12;;;;;;;9.93;5.93;;;;;;;9.63;59.74;102086.52;123950;1105;65052;-82
2021/03/03 09:23:39;;;;;;;13.50;6.67;;;;;;;9.70;59.38;102080.56;123760;1105;64928;-83
2021/03/03 09:26:19;;;;;;;9.63;5.83;;;;;;;9.78;60.29;102075.43;123804;1105;64920;-83
2021/03/03 09:28:45;;;;;;;12.50;6.60;;;;;;;9.91;59.65;102083.12;123709;1105;64944;-77
2021/03/03 09:31:28;;;;;;;11.77;5.83;;;;;;;10.00;60.59;102077.00;123456;1105;64914;-83
2021/03/03 09:33:55;;;;;;;13.50;7.33;;;;;;;10.04;57.91;102079.39;123649;1105;64902;-83
2021/03/03 09:36:21;;;;;;;8.67;4.70;;;;;;;10.07;58.31;102069.33;123704;1106;65043;-79
2021/03/03 09:38:54;;;;;;;10.90;6.37;;;;;;;10.10;59.30;102069.06;123576;1106;64889;-81
2021/03/03 09:41:24;;;;;;;11.55;6.30;;;;;;;10.18;59.05;102065.73;123626;1105;64877;-81
2021/03/03 09:43:58;;;;;;;12.97;6.80;;;;;;;10.24;58.72;102064.33;123374;1106;64984;-82
2021/03/03 09:46:28;;;;;;;13.83;7.77;;;;;;;10.31;59.15;102062.84;123695;1104;64943;-82
2021/03/03 09:48:54;;;;;;;14.53;6.07;;;;;;;10.41;58.37;102061.00;123541;1105;64844;-80
2021/03/03 09:51:21;;;;;;;11.13;5.67;;;;;;;10.49;58.47;102063.80;123484;1105;64873;-81
2021/03/03 09:53:53;;;;;;;11.43;6.20;;;;;;;10.60;58.73;102065.46;123666;1105;65026;-82
2021/03/03 09:56:30;;;;;;;13.93;7.43;;;;;;;10.61;56.52;102062.67;124024;1105;65406;-81
2021/03/03 09:59:00;;;;;;;10.27;6.40;;;;;;;10.67;56.98;102055.97;123683;1106;64921;-82
2021/03/03 10:01:26;;;;;;;15.05;7.10;;;;;;;10.78;57.09;102053.15;123944;1104;65142;-83
2021/03/03 10:03:57;;;;;;;15.37;7.23;;;;;;;10.90;56.47;102048.52;123606;1105;64873;-83
2021/03/03 10:06:23;;;;;;;11.93;6.27;;;;;;;11.06;55.51;102049.73;123583;1105;65691;-83
2021/03/03 10:08:52;;;;;;;13.30;7.47;;;;;;;11.24;55.50;102047.97;123787;1105;65049;-82
2021/03/03 10:11:18;;;;;;;13.00;5.97;;;;;;;11.38;54.00;102044.84;123909;1105;65008;-83
2021/03/03 10:13:45;;;;;;;11.93;6.20;;;;;;;11.51;53.05;102048.98;123747;1105;64907;-83
2021/03/03 10:16:19;;;;;;;14.10;6.63;;;;;;;11.68;53.31;102050.83;123888;1105;65774;-82
2021/03/03 10:19:04;;;;;;;10.67;6.63;;;;;;;11.82;53.72;102053.00;123775;1105;66854;-80
2021/03/03 10:21:31;;;;;;;11.67;6.50;;;;;;;11.90;52.93;102046.11;124028;1105;65023;-81
2021/03/03 10:24:16;;;;;;;16.60;6.53;;;;;;;11.93;51.98;102046.66;123985;1105;64914;-82
2021/03/03 10:26:46;;;;;;;11.57;6.67;;;;;;;11.90;51.82;102044.31;123960;1105;64841;-79
2021/03/03 10:29:31;;;;;;;13.50;6.50;;;;;;;11.88;50.47;102037.41;123540;1105;65219;-83
2021/03/03 10:32:12;;;;;;;11.87;6.97;;;;;;;11.87;51.48;102049.05;123605;1105;65024;-81
2021/03/03 10:34:41;;;;;;;16.05;6.25;;;;;;;11.93;51.38;102036.02;123509;1105;64984;-78
2021/03/03 10:37:21;;;;;;;10.37;5.67;;;;;;;12.01;50.90;102040.59;123698;1106;64915;-80
2021/03/03 10:39:50;;;;;;;15.03;7.30;;;;;;;12.14;50.16;102034.89;123384;1105;64895;-79
2021/03/03 10:42:22;;;;;;;13.53;5.77;;;;;;;12.26;50.18;102032.82;123609;1105;64843;-78
2021/03/03 10:44:55;;;;;;;11.90;6.70;;;;;;;12.32;49.42;102032.21;123663;1105;64927;-83
2021/03/03 10:47:41;;;;;;;14.63;6.47;;;;;;;12.41;49.89;102036.59;123706;1105;65650;-81
2021/03/03 10:50:28;;;;;;;14.70;7.10;;;;;;;12.55;49.63;102038.72;123814;1106;64891;-81
2021/03/03 10:53:00;;;;;;;13.45;6.80;;;;;;;12.67;49.50;102028.66;123803;1106;64973;-83
2021/03/03 10:55:38;;;;;;;14.60;6.83;;;;;;;12.79;49.14;102029.23;123859;1105;64918;-82
2021/03/03 10:58:13;;;;;;;8.97;5.07;;;;;;;12.87;48.09;102026.62;123676;1105;65234;-83
2021/03/03 11:01:03;;;;;;;15.17;6.60;;;;;;;13.01;48.77;102011.89;124137;1105;65056;-82
2021/03/03 11:03:56;;;;;;;15.83;5.77;;;;;;;13.18;49.20;102018.14;123967;1105;64768;-84
2021/03/03 11:06:27;;;;;;;9.10;4.30;;;;;;;13.38;48.91;102008.91;123852;1105;64988;-85
2021/03/03 11:08:54;;;;;;;18.87;9.40;;;;;;;13.53;48.74;102010.95;123803;1105;64882;-82
2021/03/03 11:11:20;;;;;;;14.40;7.30;;;;;;;13.59;47.28;102010.31;123939;1105;65133;-82
2021/03/03 11:13:47;;;;;;;12.97;6.63;;;;;;;13.67;48.32;102002.34;123686;1105;65260;-84
2021/03/03 11:16:13;;;;;;;14.50;7.10;;;;;;;13.77;47.72;102000.37;123682;1105;65090;-83
2021/03/03 11:18:40;;;;;;;18.07;8.00;;;;;;;13.92;48.14;101999.70;123751;1105;64934;-83
2021/03/03 11:21:08;;;;;;;13.30;7.23;;;;;;;14.03;46.76;101999.39;124205;1105;65751;-83
2021/03/03 11:23:34;;;;;;;17.33;6.80;;;;;;;14.13;46.71;102002.74;123784;1106;64914;-83